KBQX

Brazos 451 Oil Platform

Brazos 451, Texas, USA
METAR KBQX 161755Z AUTO 11007KT 10SM FEW009 SCT015 BKN037 18/16 A3025 RMK A01
Observed Flight Rules
Jan-16 @ 17:55 UTC (33 minutes ago) Visual Flight Rules
Wind Visibility Clouds
110° at 7 knots 10 miles
  • Few at 900' AGL
  • Scattered at 1,500' AGL
  • Broken at 3,700' AGL
Temperatures Readings
Current 18°C / 64°F
Dewpoint 16°C / 61°F
Humidity 88%
Altimeter 30.25" Hg
Pressure 1024.42 hPa
Elevation 34
METAR KBQX 161755Z AUTO 11007KT 10SM FEW009 SCT015 BKN037 18/16 A3025 RMK A01
Observed Flight Rules
Jan-16 @ 17:55 UTC
(33 minutes ago)
VFR
Wind Visibility
110° at 7 knots 10 miles
Clouds
  • Few at 900' AGL
  • Scattered at 1,500' AGL
  • Broken at 3,700' AGL
Temperature Dewpoint
18°C / 64°F 16°C / 61°F
Humidity Altimeter Pressure
88% 30.25" Hg 1024.42 hPa